createdAt,value
2022-10-17T00:00:11.403Z,100.00
2022-10-17T00:02:39.619Z,100.00
2022-10-17T00:05:06.331Z,100.00
2022-10-17T00:07:32.746Z,100.00
2022-10-17T00:09:59.372Z,100.00
2022-10-17T00:12:27.017Z,100.00
2022-10-17T00:14:53.424Z,100.00
2022-10-17T00:17:19.872Z,100.00
2022-10-17T00:19:46.612Z,100.00
2022-10-17T00:22:13.864Z,100.00
2022-10-17T00:24:40.304Z,100.00
2022-10-17T00:27:07.050Z,100.00
2022-10-17T00:29:33.517Z,100.00
2022-10-17T00:31:59.979Z,100.00
2022-10-17T00:34:29.307Z,100.00
2022-10-17T00:36:55.684Z,100.00
2022-10-17T00:39:21.981Z,100.00
2022-10-17T00:41:48.685Z,100.00
2022-10-17T00:44:30.629Z,100.00
2022-10-17T00:47:06.664Z,100.00
2022-10-17T00:49:35.758Z,100.00
2022-10-17T00:52:06.037Z,100.00
2022-10-17T00:54:36.521Z,100.00
2022-10-17T00:57:04.407Z,100.00
2022-10-17T00:59:34.078Z,100.00
2022-10-17T01:02:04.231Z,100.00
2022-10-17T01:04:30.894Z,100.00
2022-10-17T01:06:57.493Z,100.00
2022-10-17T01:09:26.387Z,100.00
2022-10-17T01:12:13.464Z,100.00
2022-10-17T01:14:58.239Z,100.00
2022-10-17T01:17:46.086Z,100.00
2022-10-17T01:20:50.133Z,100.00
2022-10-17T01:23:41.657Z,100.00
2022-10-17T01:26:55.055Z,100.00
2022-10-17T01:29:33.701Z,100.00
2022-10-17T01:32:09.140Z,100.00
2022-10-17T01:34:59.393Z,100.00
2022-10-17T01:38:03.120Z,100.00
2022-10-17T01:40:55.510Z,100.00
2022-10-17T01:43:45.204Z,100.00
2022-10-17T01:46:24.944Z,100.00
2022-10-17T01:48:56.269Z,100.00
2022-10-17T01:51:36.884Z,100.00
2022-10-17T01:54:10.991Z,100.00
2022-10-17T01:56:40.009Z,100.00
2022-10-17T01:59:21.564Z,100.00
2022-10-17T02:01:52.290Z,100.00
2022-10-17T02:04:18.777Z,100.00
2022-10-17T02:06:46.400Z,100.00
2022-10-17T02:09:26.406Z,100.00
2022-10-17T02:11:57.641Z,100.00
2022-10-17T02:15:02.025Z,100.00
2022-10-17T02:17:44.992Z,100.00
2022-10-17T02:20:25.549Z,100.00
2022-10-17T02:23:23.696Z,100.00
2022-10-17T02:26:01.183Z,100.00
2022-10-17T02:28:31.435Z,100.00
2022-10-17T02:31:45.623Z,100.00
2022-10-17T02:34:20.120Z,100.00
2022-10-17T02:36:52.174Z,100.00
2022-10-17T02:39:25.298Z,100.00
2022-10-17T02:42:12.351Z,100.00
2022-10-17T02:44:43.421Z,100.00
2022-10-17T02:47:32.663Z,100.00
2022-10-17T02:50:01.614Z,100.00
2022-10-17T02:52:35.929Z,100.00
2022-10-17T02:55:20.392Z,100.00
2022-10-17T02:58:01.768Z,100.00
2022-10-17T03:00:30.882Z,100.00
2022-10-17T03:02:57.330Z,100.00
2022-10-17T03:05:29.691Z,100.00
2022-10-17T03:07:56.597Z,100.00
2022-10-17T03:10:23.542Z,100.00
2022-10-17T03:12:51.411Z,100.00
2022-10-17T03:15:19.313Z,100.00
2022-10-17T03:20:11.974Z,100.00
2022-10-17T03:22:38.337Z,100.00
2022-10-17T03:25:05.040Z,100.00
2022-10-17T03:27:33.086Z,100.00
2022-10-17T03:30:02.161Z,100.00
2022-10-17T03:32:28.577Z,100.00
2022-10-17T03:34:54.986Z,100.00
2022-10-17T03:37:21.293Z,100.00
2022-10-17T03:39:47.718Z,100.00
2022-10-17T03:42:14.059Z,100.00
2022-10-17T03:44:40.687Z,100.00
2022-10-17T03:47:09.261Z,100.00
2022-10-17T03:49:38.370Z,100.00
2022-10-17T03:52:04.826Z,100.00
2022-10-17T03:54:31.223Z,100.00
2022-10-17T03:56:59.992Z,100.00
2022-10-17T03:59:27.654Z,100.00
2022-10-17T04:01:54.226Z,100.00
2022-10-17T04:04:20.827Z,100.00
2022-10-17T04:06:47.452Z,100.00
2022-10-17T04:09:14.300Z,100.00
2022-10-17T04:11:40.752Z,100.00
2022-10-17T04:14:07.439Z,100.00
2022-10-17T04:16:33.950Z,100.00
2022-10-17T04:19:00.846Z,100.00
2022-10-17T04:21:28.638Z,100.00
2022-10-17T04:23:57.684Z,100.00
2022-10-17T04:26:24.876Z,100.00
2022-10-17T04:28:51.757Z,100.00
2022-10-17T04:31:18.538Z,100.00
2022-10-17T04:33:48.094Z,100.00
2022-10-17T04:36:18.312Z,100.00
2022-10-17T04:38:45.338Z,100.00
2022-10-17T04:41:14.723Z,100.00
2022-10-17T04:43:43.555Z,100.00
2022-10-17T04:46:15.157Z,100.00
2022-10-17T04:48:42.199Z,100.00
2022-10-17T04:51:12.648Z,100.00
2022-10-17T04:53:40.581Z,100.00
2022-10-17T04:56:18.801Z,100.00
2022-10-17T04:58:46.224Z,100.00
2022-10-17T05:01:23.805Z,100.00
2022-10-17T05:03:50.510Z,100.00
2022-10-17T05:06:20.456Z,100.00
2022-10-17T05:08:47.450Z,100.00
2022-10-17T05:11:23.204Z,100.00
2022-10-17T05:13:52.067Z,100.00
2022-10-17T05:16:18.520Z,100.00
2022-10-17T05:18:52.688Z,100.00
2022-10-17T05:21:21.705Z,100.00
2022-10-17T05:23:48.109Z,100.00
2022-10-17T05:26:14.913Z,100.00
2022-10-17T05:28:41.699Z,100.00
2022-10-17T05:31:11.502Z,100.00
2022-10-17T05:33:39.366Z,100.00
2022-10-17T05:36:07.436Z,100.00
2022-10-17T05:38:33.884Z,100.00
2022-10-17T05:41:02.540Z,100.00
2022-10-17T05:43:32.877Z,100.00
2022-10-17T05:45:59.622Z,100.00
2022-10-17T05:48:29.166Z,100.00
2022-10-17T05:51:09.247Z,100.00
2022-10-17T05:53:39.010Z,100.00
2022-10-17T05:56:09.596Z,100.00
2022-10-17T05:58:49.685Z,100.00
2022-10-17T06:01:16.509Z,100.00
2022-10-17T06:03:45.393Z,100.00
2022-10-17T06:06:13.470Z,100.00
2022-10-17T06:08:40.424Z,100.00
2022-10-17T06:11:09.955Z,100.00
2022-10-17T06:13:37.585Z,100.00
2022-10-17T06:27:12.238Z,100.00
2022-10-17T06:29:39.066Z,100.00
2022-10-17T06:32:06.933Z,100.00
2022-10-17T06:34:35.315Z,100.00
2022-10-17T06:37:05.646Z,100.00
2022-10-17T06:39:34.438Z,100.00
2022-10-17T06:42:05.088Z,100.00
2022-10-17T06:44:31.468Z,100.00
2022-10-17T06:46:59.016Z,100.00
2022-10-17T06:49:25.784Z,100.00
2022-10-17T06:51:54.143Z,100.00
2022-10-17T06:54:20.510Z,100.00
2022-10-17T06:56:47.410Z,100.00
2022-10-17T06:59:13.868Z,100.00
2022-10-17T07:01:43.099Z,100.00
2022-10-17T07:04:12.888Z,100.00
2022-10-17T07:06:39.568Z,100.00
2022-10-17T07:09:06.760Z,100.00
2022-10-17T07:11:36.245Z,100.00
2022-10-17T07:14:03.995Z,100.00
2022-10-17T07:16:30.441Z,100.00
2022-10-17T07:18:56.890Z,100.00
2022-10-17T07:21:25.776Z,100.00
2022-10-17T07:23:53.792Z,100.00
2022-10-17T07:26:20.711Z,100.00
2022-10-17T07:28:51.223Z,100.00
2022-10-17T07:31:19.406Z,100.00
2022-10-17T07:33:48.772Z,100.00
2022-10-17T07:36:19.573Z,100.00
2022-10-17T07:38:46.480Z,100.00
2022-10-17T07:41:16.554Z,100.00
2022-10-17T07:43:46.487Z,100.00
2022-10-17T07:46:13.236Z,100.00
2022-10-17T07:48:40.231Z,100.00
2022-10-17T07:51:11.331Z,100.00
2022-10-17T07:53:39.831Z,100.00
2022-10-17T07:56:09.524Z,100.00
2022-10-17T07:58:39.970Z,100.00
2022-10-17T08:01:13.781Z,100.00
2022-10-17T08:03:46.580Z,100.00
2022-10-17T08:06:13.790Z,100.00
2022-10-17T08:08:41.546Z,100.00
2022-10-17T08:11:11.383Z,100.00
2022-10-17T08:13:38.848Z,100.00
2022-10-17T08:16:08.393Z,100.00
2022-10-17T08:18:36.027Z,100.00
2022-10-17T08:21:07.303Z,100.00
2022-10-17T08:23:34.349Z,100.00
2022-10-17T08:26:02.343Z,100.00
2022-10-17T08:28:28.923Z,100.00
2022-10-17T08:31:13.005Z,100.00
2022-10-17T08:33:39.957Z,100.00
2022-10-17T08:36:07.472Z,100.00
2022-10-17T08:38:36.869Z,100.00
2022-10-17T08:41:14.252Z,100.00
2022-10-17T08:43:55.656Z,100.00
2022-10-17T08:46:24.987Z,100.00
2022-10-17T08:48:51.977Z,100.00
2022-10-17T08:51:24.639Z,100.00
2022-10-17T08:53:57.965Z,100.00
2022-10-17T08:59:17.755Z,100.00
2022-10-17T09:02:09.015Z,100.00
2022-10-17T09:04:44.440Z,100.00
2022-10-17T09:07:51.480Z,100.00
2022-10-17T09:10:41.678Z,100.00
2022-10-17T09:13:38.233Z,100.00
2022-10-17T09:16:36.710Z,100.00
2022-10-17T09:19:19.596Z,100.00
2022-10-17T09:22:00.544Z,100.00
2022-10-17T09:24:32.818Z,100.00
2022-10-17T09:27:00.185Z,100.00
2022-10-17T09:29:36.072Z,100.00
2022-10-17T09:32:17.407Z,100.00
2022-10-17T09:34:43.976Z,100.00
2022-10-17T09:37:15.882Z,100.00
2022-10-17T09:39:45.014Z,100.00
2022-10-17T09:42:17.352Z,100.00
2022-10-17T09:44:55.789Z,100.00
2022-10-17T09:47:47.576Z,100.00
2022-10-17T09:50:34.920Z,100.00
2022-10-17T09:53:12.176Z,99.38
2022-10-17T09:55:48.771Z,99.40
2022-10-17T09:58:16.049Z,93.36
2022-10-17T10:00:46.071Z,95.89
2022-10-17T10:03:26.519Z,95.42
2022-10-17T10:06:06.272Z,95.84
2022-10-17T10:08:47.767Z,98.04
2022-10-17T10:11:16.112Z,99.17
2022-10-17T10:13:43.255Z,98.00
2022-10-17T10:16:30.772Z,96.72
2022-10-17T10:18:57.671Z,96.72
2022-10-17T10:21:27.023Z,95.67
2022-10-17T10:23:59.513Z,94.69
2022-10-17T10:26:44.098Z,91.24
2022-10-17T10:29:39.061Z,91.32
2022-10-17T10:32:27.143Z,88.40
2022-10-17T10:34:55.414Z,87.11
2022-10-17T10:37:27.655Z,91.59
2022-10-17T10:39:59.578Z,91.83
2022-10-17T10:42:33.037Z,91.25
2022-10-17T10:45:46.476Z,89.74
2022-10-17T10:48:14.476Z,89.33
2022-10-17T10:50:48.430Z,86.76
2022-10-17T10:53:37.112Z,84.44
2022-10-17T10:56:24.770Z,82.40
2022-10-17T10:59:01.974Z,84.27
2022-10-17T11:01:46.419Z,83.56
2022-10-17T11:04:47.597Z,83.17
2022-10-17T11:07:28.664Z,86.51
2022-10-17T11:10:16.692Z,86.35
2022-10-17T11:13:03.880Z,83.14
2022-10-17T11:15:37.353Z,84.56
2022-10-17T11:18:07.178Z,77.13
2022-10-17T11:20:54.766Z,75.59
2022-10-17T11:23:30.385Z,78.65
2022-10-17T11:26:01.536Z,76.07
2022-10-17T11:28:33.058Z,80.11
2022-10-17T11:31:18.992Z,79.21
2022-10-17T11:33:50.370Z,76.75
2022-10-17T11:36:19.849Z,75.15
2022-10-17T11:38:46.514Z,72.68
2022-10-17T11:41:22.144Z,73.09
2022-10-17T11:43:56.753Z,76.37
2022-10-17T11:46:33.383Z,75.12
2022-10-17T11:49:02.611Z,73.93
2022-10-17T11:54:39.879Z,69.44
2022-10-17T11:57:33.779Z,68.12
2022-10-17T12:00:27.169Z,65.42
2022-10-17T12:03:14.966Z,62.51
2022-10-17T12:06:09.890Z,61.44
2022-10-17T12:08:50.133Z,63.16
2022-10-17T12:11:27.424Z,64.46
2022-10-17T12:13:57.272Z,64.54
2022-10-17T12:16:30.548Z,62.01
2022-10-17T12:19:04.644Z,60.84
2022-10-17T12:22:11.135Z,58.39
2022-10-17T12:24:48.142Z,60.87
2022-10-17T12:27:36.029Z,62.40
2022-10-17T12:30:14.342Z,59.57
2022-10-17T12:33:06.279Z,60.50
2022-10-17T12:35:36.090Z,59.76
2022-10-17T12:38:22.872Z,59.36
2022-10-17T12:40:54.208Z,60.47
2022-10-17T12:43:29.482Z,59.57
2022-10-17T12:46:03.934Z,54.04
2022-10-17T12:48:33.486Z,52.10
2022-10-17T12:54:15.190Z,46.49
2022-10-17T12:56:46.071Z,46.04
2022-10-17T12:59:28.711Z,45.51
2022-10-17T13:02:03.498Z,46.01
2022-10-17T13:04:31.568Z,44.98
2022-10-17T13:06:59.439Z,44.26
2022-10-17T13:09:33.418Z,44.92
2022-10-17T13:12:06.021Z,44.40
2022-10-17T13:14:36.362Z,43.71
2022-10-17T13:17:05.732Z,43.20
2022-10-17T13:19:44.470Z,44.70
2022-10-17T13:22:26.793Z,45.48
2022-10-17T13:25:20.350Z,45.05
2022-10-17T13:27:47.804Z,43.86
2022-10-17T13:30:29.425Z,43.67
2022-10-17T13:32:59.398Z,43.69
2022-10-17T13:35:58.872Z,43.99
2022-10-17T13:38:24.466Z,44.53
2022-10-17T13:41:01.327Z,45.26
2022-10-17T13:43:32.748Z,45.96
2022-10-17T13:46:13.802Z,46.44
2022-10-17T13:48:49.538Z,47.36
2022-10-17T13:51:16.286Z,47.45
2022-10-17T13:53:42.705Z,48.78
2022-10-17T13:56:38.759Z,46.92
2022-10-17T13:59:36.287Z,47.41
2022-10-17T14:02:03.534Z,46.33
2022-10-17T14:04:44.697Z,46.97
2022-10-17T14:07:26.606Z,47.17
2022-10-17T14:09:53.433Z,46.96
2022-10-17T14:12:20.989Z,45.93
2022-10-17T14:15:12.696Z,46.20
2022-10-17T14:17:36.947Z,45.75
2022-10-17T14:23:20.794Z,45.97
2022-10-17T14:25:42.001Z,53.34
2022-10-17T14:28:17.264Z,56.47
2022-10-17T14:31:02.169Z,59.55
2022-10-17T14:33:31.085Z,61.72
2022-10-17T14:36:00.824Z,62.76
2022-10-17T14:38:29.204Z,63.13
2022-10-17T14:41:37.313Z,63.75
2022-10-17T14:44:14.001Z,64.27
2022-10-17T14:46:48.452Z,65.08
2022-10-17T14:49:25.114Z,66.03
2022-10-17T14:52:25.806Z,67.28
2022-10-17T14:54:52.270Z,67.90
2022-10-17T14:57:44.633Z,69.55
2022-10-17T15:00:16.962Z,70.90
2022-10-17T15:02:44.609Z,71.90
2022-10-17T15:05:13.455Z,73.44
2022-10-17T15:07:42.393Z,72.79
2022-10-17T15:10:28.143Z,73.09
2022-10-17T15:12:59.079Z,75.07
2022-10-17T15:15:37.553Z,74.42
2022-10-17T15:18:06.562Z,73.98
2022-10-17T15:20:34.610Z,73.50
2022-10-17T15:23:02.257Z,75.47
2022-10-17T15:25:31.924Z,76.50
2022-10-17T15:27:58.706Z,76.45
2022-10-17T15:30:31.201Z,75.42
2022-10-17T15:32:58.151Z,76.61
2022-10-17T15:35:26.192Z,77.43
2022-10-17T15:37:53.126Z,78.80
2022-10-17T15:40:23.448Z,78.38
2022-10-17T15:42:50.408Z,77.23
2022-10-17T15:45:19.052Z,77.07
2022-10-17T15:47:55.160Z,79.36
2022-10-17T15:50:21.787Z,80.63
2022-10-17T15:52:52.604Z,82.54
2022-10-17T15:55:19.972Z,85.07
2022-10-17T15:57:48.404Z,84.60
2022-10-17T16:00:18.971Z,84.51
2022-10-17T16:02:50.808Z,88.09
2022-10-17T16:05:23.710Z,89.08
2022-10-17T16:07:50.395Z,91.52
2022-10-17T16:10:17.590Z,94.37
2022-10-17T16:12:47.272Z,95.18
2022-10-17T16:15:18.089Z,98.16
2022-10-17T16:17:46.140Z,100.00
2022-10-17T16:20:12.875Z,100.00
2022-10-17T16:22:44.075Z,100.00
2022-10-17T16:25:36.982Z,100.00
2022-10-17T16:28:03.462Z,100.00
2022-10-17T16:30:31.273Z,100.00
2022-10-17T16:32:57.862Z,100.00
2022-10-17T16:35:26.790Z,100.00
2022-10-17T16:37:53.498Z,100.00
2022-10-17T16:40:20.138Z,100.00
2022-10-17T16:42:48.826Z,100.00
2022-10-17T16:45:23.423Z,100.00
2022-10-17T16:47:53.027Z,100.00
2022-10-17T16:50:20.077Z,100.00
2022-10-17T16:52:50.823Z,100.00
2022-10-17T16:55:17.277Z,100.00
2022-10-17T17:00:12.920Z,100.00
2022-10-17T17:02:39.504Z,100.00
2022-10-17T17:05:06.779Z,100.00
2022-10-17T17:07:34.490Z,100.00
2022-10-17T17:10:02.953Z,100.00
2022-10-17T17:12:34.474Z,100.00
2022-10-17T17:15:01.081Z,100.00
2022-10-17T17:17:37.388Z,100.00
2022-10-17T17:20:11.168Z,100.00
2022-10-17T17:22:37.609Z,100.00
2022-10-17T17:25:04.496Z,100.00
2022-10-17T17:27:31.133Z,100.00
2022-10-17T17:29:57.826Z,100.00
2022-10-17T17:32:24.267Z,100.00
2022-10-17T17:34:53.813Z,100.00
2022-10-17T17:37:20.202Z,100.00
2022-10-17T17:39:47.625Z,100.00
2022-10-17T17:42:14.179Z,100.00
2022-10-17T17:44:41.366Z,100.00
2022-10-17T17:47:10.070Z,100.00
2022-10-17T17:49:36.669Z,100.00
2022-10-17T17:54:29.875Z,100.00
2022-10-17T17:56:57.363Z,100.00
2022-10-17T17:59:24.006Z,100.00
2022-10-17T18:01:51.614Z,100.00
2022-10-17T18:04:18.756Z,100.00
2022-10-17T18:06:45.125Z,100.00
2022-10-17T18:09:11.512Z,100.00
2022-10-17T18:11:38.502Z,100.00
2022-10-17T18:14:12.133Z,100.00
2022-10-17T18:16:38.538Z,100.00
2022-10-17T18:19:07.579Z,100.00
2022-10-17T18:21:34.652Z,100.00
2022-10-17T18:24:03.173Z,100.00
2022-10-17T18:26:29.776Z,100.00
2022-10-17T18:28:57.305Z,100.00
2022-10-17T18:31:25.057Z,100.00
2022-10-17T18:33:55.013Z,100.00
2022-10-17T18:36:22.948Z,100.00
2022-10-17T18:38:50.829Z,100.00
2022-10-17T18:41:19.343Z,100.00
2022-10-17T18:43:47.413Z,100.00
2022-10-17T18:46:16.438Z,100.00
2022-10-17T18:48:44.896Z,100.00
2022-10-17T18:51:13.202Z,100.00
2022-10-17T18:53:41.529Z,100.00
2022-10-17T18:56:12.506Z,100.00
2022-10-17T18:58:40.104Z,100.00
2022-10-17T19:01:21.352Z,100.00
2022-10-17T19:03:49.804Z,100.00
2022-10-17T19:06:19.319Z,100.00
2022-10-17T19:08:46.951Z,100.00
2022-10-17T19:11:21.665Z,100.00
2022-10-17T19:13:48.797Z,100.00
2022-10-17T19:16:24.269Z,100.00
2022-10-17T19:19:00.213Z,100.00
2022-10-17T19:21:26.760Z,100.00
2022-10-17T19:23:59.159Z,100.00
2022-10-17T19:26:29.792Z,100.00
2022-10-17T19:28:58.592Z,100.00
2022-10-17T19:31:27.356Z,100.00
2022-10-17T19:33:55.153Z,100.00
2022-10-17T19:36:23.595Z,100.00
2022-10-17T19:38:55.372Z,100.00
2022-10-17T19:41:25.072Z,100.00
2022-10-17T19:43:52.155Z,100.00
2022-10-17T19:46:21.464Z,100.00
2022-10-17T19:48:49.052Z,100.00
2022-10-17T19:51:17.762Z,100.00
2022-10-17T19:53:45.451Z,100.00
2022-10-17T19:56:13.513Z,100.00
2022-10-17T19:58:40.980Z,100.00
2022-10-17T20:01:09.537Z,100.00
2022-10-17T20:03:36.418Z,100.00
2022-10-17T20:06:03.884Z,100.00
2022-10-17T20:08:30.968Z,100.00
2022-10-17T20:11:05.127Z,100.00
2022-10-17T20:13:31.831Z,100.00
2022-10-17T20:15:59.580Z,100.00
2022-10-17T20:18:26.999Z,100.00
2022-10-17T20:20:54.427Z,100.00
2022-10-17T20:23:21.873Z,100.00
2022-10-17T20:26:13.308Z,100.00
2022-10-17T20:28:44.427Z,100.00
2022-10-17T20:31:12.035Z,100.00
2022-10-17T20:33:38.460Z,100.00
2022-10-17T20:36:06.224Z,100.00
2022-10-17T20:38:32.837Z,100.00
2022-10-17T20:41:04.260Z,100.00
2022-10-17T20:43:30.665Z,100.00
2022-10-17T20:46:03.683Z,100.00
2022-10-17T20:48:36.307Z,100.00
2022-10-17T20:51:10.215Z,100.00
2022-10-17T20:53:38.013Z,100.00
2022-10-17T20:56:07.588Z,100.00
2022-10-17T20:58:34.465Z,100.00
2022-10-17T21:01:08.826Z,100.00
2022-10-17T21:03:41.032Z,100.00
2022-10-17T21:06:10.690Z,100.00
2022-10-17T21:08:37.789Z,100.00
2022-10-17T21:11:21.009Z,100.00
2022-10-17T21:13:53.630Z,100.00
2022-10-17T21:16:20.593Z,100.00
2022-10-17T21:18:47.597Z,100.00
2022-10-17T21:21:27.660Z,100.00
2022-10-17T21:23:57.266Z,100.00
2022-10-17T21:26:25.218Z,100.00
2022-10-17T21:28:55.476Z,100.00
2022-10-17T21:31:24.348Z,100.00
2022-10-17T21:33:54.663Z,100.00
2022-10-17T21:36:22.280Z,100.00
2022-10-17T21:38:51.895Z,100.00
2022-10-17T21:41:21.075Z,100.00
2022-10-17T21:43:48.261Z,100.00
2022-10-17T21:46:16.952Z,100.00
2022-10-17T21:48:44.558Z,100.00
2022-10-17T21:51:13.529Z,100.00
2022-10-17T21:53:40.460Z,100.00
2022-10-17T21:56:12.833Z,100.00
2022-10-17T21:58:39.234Z,100.00
2022-10-17T22:01:11.822Z,100.00
2022-10-17T22:03:44.074Z,100.00
2022-10-17T22:06:38.651Z,100.00
2022-10-17T22:09:04.636Z,100.00
2022-10-17T22:11:32.964Z,100.00
2022-10-17T22:14:05.090Z,100.00
2022-10-17T22:16:31.965Z,100.00
2022-10-17T22:19:04.817Z,100.00
2022-10-17T22:21:34.327Z,100.00
2022-10-17T22:24:02.973Z,100.00
2022-10-17T22:26:31.367Z,100.00
2022-10-17T22:28:59.407Z,100.00
2022-10-17T22:31:26.371Z,100.00
2022-10-17T22:33:52.929Z,100.00
2022-10-17T22:36:19.488Z,100.00
2022-10-17T22:38:45.938Z,100.00
2022-10-17T22:41:12.549Z,100.00
2022-10-17T22:43:44.528Z,100.00
2022-10-17T22:46:13.086Z,100.00
2022-10-17T22:48:39.622Z,100.00
2022-10-17T22:51:06.267Z,100.00
2022-10-17T22:53:32.815Z,100.00
2022-10-17T22:56:01.243Z,100.00
2022-10-17T22:58:29.549Z,100.00
2022-10-17T23:00:56.552Z,100.00
2022-10-17T23:03:24.382Z,100.00
2022-10-17T23:05:52.255Z,100.00
2022-10-17T23:08:19.182Z,100.00
2022-10-17T23:10:46.863Z,100.00
2022-10-17T23:13:14.542Z,100.00
2022-10-17T23:15:42.136Z,100.00
2022-10-17T23:18:09.400Z,100.00
2022-10-17T23:20:37.596Z,100.00
2022-10-17T23:23:04.622Z,100.00
2022-10-17T23:25:33.699Z,100.00
2022-10-17T23:28:00.618Z,100.00
2022-10-17T23:30:27.312Z,100.00
2022-10-17T23:32:54.026Z,100.00
2022-10-17T23:35:20.370Z,100.00
2022-10-17T23:37:46.890Z,100.00
2022-10-17T23:40:13.461Z,100.00
2022-10-17T23:42:40.091Z,100.00
2022-10-17T23:45:07.309Z,100.00
2022-10-17T23:47:34.426Z,100.00
2022-10-17T23:50:01.035Z,100.00
2022-10-17T23:52:27.537Z,100.00
2022-10-17T23:54:53.968Z,100.00
2022-10-17T23:57:20.267Z,100.00
2022-10-17T23:59:46.707Z,100.00
